createdAt,value
2024-03-16T00:00:15.268Z,38.19
2024-03-16T00:00:46.844Z,38.54
2024-03-16T00:01:18.511Z,38.54
2024-03-16T00:01:50.131Z,38.83
2024-03-16T00:02:21.897Z,38.39
2024-03-16T00:02:53.537Z,38.48
2024-03-16T00:03:25.252Z,38.41
2024-03-16T00:03:56.818Z,38.40
2024-03-16T00:04:28.402Z,38.19
2024-03-16T00:05:00.058Z,38.11
2024-03-16T00:05:31.565Z,38.41
2024-03-16T00:06:03.267Z,38.18
2024-03-16T00:06:34.983Z,38.56
2024-03-16T00:07:06.898Z,38.20
2024-03-16T00:07:38.610Z,38.30
2024-03-16T00:08:10.199Z,38.29
2024-03-16T00:08:41.727Z,38.46
2024-03-16T00:09:13.221Z,38.18
2024-03-16T00:09:44.780Z,38.10
2024-03-16T00:10:16.486Z,38.40
2024-03-16T00:10:48.147Z,38.55
2024-03-16T00:11:19.683Z,37.99
2024-03-16T00:11:51.336Z,38.36
2024-03-16T00:12:23.033Z,38.21
2024-03-16T00:12:54.858Z,37.99
2024-03-16T00:13:26.475Z,38.06
2024-03-16T00:13:58.438Z,38.18
2024-03-16T00:14:29.969Z,38.33
2024-03-16T00:15:01.519Z,38.36
2024-03-16T00:15:33.198Z,38.22
2024-03-16T00:16:05.252Z,38.45
2024-03-16T00:16:37.029Z,38.29
2024-03-16T00:17:08.594Z,38.25
2024-03-16T00:17:40.119Z,38.30
2024-03-16T00:18:11.800Z,38.29
2024-03-16T00:18:43.290Z,38.19
2024-03-16T00:19:14.926Z,38.39
2024-03-16T00:19:46.569Z,38.66
2024-03-16T00:20:18.194Z,38.16
2024-03-16T00:20:49.732Z,38.03
2024-03-16T00:21:21.231Z,38.00
2024-03-16T00:21:52.765Z,38.15
2024-03-16T00:22:24.331Z,38.04
2024-03-16T00:22:55.837Z,37.98
2024-03-16T00:23:27.383Z,38.12
2024-03-16T00:23:58.990Z,38.28
2024-03-16T00:24:30.578Z,38.28
2024-03-16T00:25:02.390Z,38.22
2024-03-16T00:25:34.029Z,38.14
2024-03-16T00:26:05.613Z,38.24
2024-03-16T00:26:37.183Z,38.01
2024-03-16T00:27:08.882Z,38.24
2024-03-16T00:27:40.619Z,38.21
2024-03-16T00:28:12.269Z,37.97
2024-03-16T00:28:43.943Z,38.00
2024-03-16T00:29:15.604Z,38.02
2024-03-16T00:29:47.124Z,38.15
2024-03-16T00:30:18.696Z,38.33
2024-03-16T00:30:50.351Z,37.86
2024-03-16T00:31:22.014Z,38.26
2024-03-16T00:31:53.601Z,38.25
2024-03-16T00:32:25.138Z,38.09
2024-03-16T00:32:56.751Z,38.12
2024-03-16T00:33:28.339Z,38.08
2024-03-16T00:33:59.964Z,38.10
2024-03-16T00:34:31.716Z,38.66
2024-03-16T00:35:03.366Z,38.13
2024-03-16T00:35:34.994Z,38.31
2024-03-16T00:36:06.667Z,38.15
2024-03-16T00:36:38.359Z,37.79
2024-03-16T00:37:10.245Z,38.38
2024-03-16T00:37:41.867Z,38.09
2024-03-16T00:38:13.421Z,38.27
2024-03-16T00:38:44.935Z,38.22
2024-03-16T00:39:16.924Z,38.22
2024-03-16T00:39:48.956Z,38.08
2024-03-16T00:40:20.884Z,38.21
2024-03-16T00:40:52.682Z,37.94
2024-03-16T00:41:24.479Z,38.28
2024-03-16T00:41:56.073Z,38.28
2024-03-16T00:42:27.672Z,38.10
2024-03-16T00:42:59.302Z,38.30
2024-03-16T00:43:30.978Z,38.29
2024-03-16T00:44:02.739Z,37.89
2024-03-16T00:44:34.285Z,38.21
2024-03-16T00:45:06.124Z,38.29
2024-03-16T00:45:37.756Z,38.32
2024-03-16T00:46:09.513Z,38.23
2024-03-16T00:46:41.096Z,38.13
2024-03-16T00:47:12.695Z,38.05
2024-03-16T00:47:44.404Z,37.91
2024-03-16T00:48:16.082Z,38.00
2024-03-16T00:48:47.725Z,38.07
2024-03-16T00:49:19.310Z,37.98
2024-03-16T00:49:50.894Z,38.01
2024-03-16T00:50:22.536Z,38.29
2024-03-16T00:50:54.082Z,38.12
2024-03-16T00:51:25.755Z,38.33
2024-03-16T00:51:57.366Z,38.26
2024-03-16T00:52:28.969Z,37.93
2024-03-16T00:53:00.574Z,38.28
2024-03-16T00:53:32.152Z,38.31
2024-03-16T00:54:03.710Z,38.38
2024-03-16T00:54:35.337Z,37.98
2024-03-16T00:55:07.109Z,38.06
2024-03-16T00:55:38.790Z,37.87
2024-03-16T00:56:10.361Z,37.88
2024-03-16T00:56:41.906Z,38.31
2024-03-16T00:57:13.545Z,38.01
2024-03-16T00:57:45.197Z,38.18
2024-03-16T00:58:16.741Z,38.33
2024-03-16T00:58:48.303Z,37.95
2024-03-16T00:59:19.864Z,38.20
2024-03-16T00:59:51.463Z,38.20
2024-03-16T01:00:23.056Z,38.32
2024-03-16T01:00:54.706Z,38.09
2024-03-16T01:01:26.413Z,38.13
2024-03-16T01:01:58.168Z,38.27
2024-03-16T01:02:29.758Z,37.81
2024-03-16T01:03:01.358Z,37.87
2024-03-16T01:03:32.907Z,38.27
2024-03-16T01:04:04.725Z,38.30
2024-03-16T01:04:36.389Z,38.06
2024-03-16T01:05:07.930Z,38.12
2024-03-16T01:05:39.513Z,38.16
2024-03-16T01:06:11.111Z,37.98
2024-03-16T01:06:42.727Z,38.00
2024-03-16T01:07:14.431Z,38.07
2024-03-16T01:07:45.997Z,37.76
2024-03-16T01:08:17.531Z,37.67
2024-03-16T01:08:49.114Z,38.00
2024-03-16T01:09:20.673Z,37.98
2024-03-16T01:09:52.328Z,37.89
2024-03-16T01:10:23.890Z,37.93
2024-03-16T01:10:55.625Z,37.80
2024-03-16T01:11:27.357Z,38.01
2024-03-16T01:11:58.978Z,37.86
2024-03-16T01:12:30.662Z,37.84
2024-03-16T01:13:02.262Z,38.08
2024-03-16T01:13:33.933Z,37.80
2024-03-16T01:14:05.403Z,37.86
2024-03-16T01:14:36.967Z,37.81
2024-03-16T01:15:08.644Z,37.67
2024-03-16T01:15:40.314Z,38.12
2024-03-16T01:16:11.988Z,37.92
2024-03-16T01:16:43.641Z,37.60
2024-03-16T01:17:15.149Z,37.79
2024-03-16T01:17:46.662Z,38.44
2024-03-16T01:18:18.199Z,37.87
2024-03-16T01:18:49.768Z,37.79
2024-03-16T01:19:21.343Z,37.81
2024-03-16T01:19:52.963Z,37.92
2024-03-16T01:20:24.594Z,37.63
2024-03-16T01:20:56.180Z,37.98
2024-03-16T01:21:27.691Z,37.78
2024-03-16T01:21:59.387Z,38.16
2024-03-16T01:22:30.944Z,37.99
2024-03-16T01:23:02.789Z,38.30
2024-03-16T01:23:34.371Z,38.13
2024-03-16T01:24:05.953Z,37.95
2024-03-16T01:24:37.653Z,37.72
2024-03-16T01:25:09.276Z,38.03
2024-03-16T01:25:40.948Z,37.80
2024-03-16T01:26:12.550Z,38.15
2024-03-16T01:26:44.064Z,38.10
2024-03-16T01:27:15.605Z,37.88
2024-03-16T01:27:47.181Z,38.13
2024-03-16T01:28:18.823Z,37.87
2024-03-16T01:28:50.396Z,37.93
2024-03-16T01:29:22.127Z,37.67
2024-03-16T01:29:53.666Z,37.73
2024-03-16T01:30:25.239Z,37.72
2024-03-16T01:30:56.883Z,37.69
2024-03-16T01:31:28.449Z,37.92
2024-03-16T01:32:00.002Z,38.13
2024-03-16T01:32:31.571Z,37.81
2024-03-16T01:33:03.286Z,37.84
2024-03-16T01:33:34.974Z,37.86
2024-03-16T01:34:06.598Z,37.78
2024-03-16T01:34:38.144Z,37.89
2024-03-16T01:35:09.622Z,37.92
2024-03-16T01:35:41.211Z,37.74
2024-03-16T01:36:12.711Z,38.05
2024-03-16T01:36:44.265Z,37.79
2024-03-16T01:37:16.128Z,38.00
2024-03-16T01:37:47.751Z,37.96
2024-03-16T01:38:19.270Z,37.93
2024-03-16T01:38:50.820Z,38.08
2024-03-16T01:39:22.382Z,37.82
2024-03-16T01:39:54.003Z,37.69
2024-03-16T01:40:25.463Z,37.87
2024-03-16T01:40:57.065Z,37.97
2024-03-16T01:41:28.683Z,37.60
2024-03-16T01:42:00.226Z,38.05
2024-03-16T01:42:31.810Z,38.01
2024-03-16T01:43:03.523Z,38.11
2024-03-16T01:43:35.237Z,37.79
2024-03-16T01:44:12.876Z,38.31
2024-03-16T01:45:02.377Z,37.92
2024-03-16T01:45:34.006Z,37.95
2024-03-16T01:46:05.737Z,38.21
2024-03-16T01:46:37.657Z,37.68
2024-03-16T01:47:09.523Z,37.71
2024-03-16T01:47:41.173Z,38.11
2024-03-16T01:48:12.862Z,37.68
2024-03-16T01:48:44.645Z,37.85
2024-03-16T01:49:16.315Z,37.86
2024-03-16T01:49:47.854Z,38.30
2024-03-16T01:50:19.638Z,37.90
2024-03-16T01:50:51.242Z,37.68
2024-03-16T01:51:22.730Z,37.76
2024-03-16T01:51:54.366Z,37.51
2024-03-16T01:52:26.423Z,37.87
2024-03-16T01:52:57.923Z,38.12
2024-03-16T01:53:29.462Z,37.71
2024-03-16T01:54:01.025Z,37.67
2024-03-16T01:54:32.596Z,38.05
2024-03-16T01:55:04.422Z,37.69
2024-03-16T01:55:36.743Z,37.92
2024-03-16T01:56:08.329Z,38.18
2024-03-16T01:56:39.847Z,37.83
2024-03-16T01:57:11.449Z,37.92
2024-03-16T01:57:43.071Z,37.73
2024-03-16T01:58:14.731Z,37.77
2024-03-16T01:58:46.472Z,37.75
2024-03-16T01:59:18.083Z,37.60
2024-03-16T01:59:49.597Z,37.79
2024-03-16T02:00:21.164Z,37.75
2024-03-16T02:00:52.803Z,37.77
2024-03-16T02:01:24.565Z,37.98
2024-03-16T02:01:56.257Z,37.94
2024-03-16T02:02:27.814Z,37.72
2024-03-16T02:02:59.389Z,37.64
2024-03-16T02:03:30.923Z,38.16
2024-03-16T02:04:02.564Z,37.94
2024-03-16T02:04:34.126Z,38.17
2024-03-16T02:05:06.259Z,38.07
2024-03-16T02:05:37.819Z,38.04
2024-03-16T02:06:09.433Z,37.78
2024-03-16T02:06:40.987Z,37.89
2024-03-16T02:07:12.605Z,37.94
2024-03-16T02:07:45.141Z,37.93
2024-03-16T02:08:16.769Z,37.79
2024-03-16T02:08:48.483Z,37.77
2024-03-16T02:09:20.081Z,37.64
2024-03-16T02:09:51.766Z,37.91
2024-03-16T02:10:23.330Z,38.12
2024-03-16T02:10:55.040Z,37.91
2024-03-16T02:11:26.754Z,37.93
2024-03-16T02:11:58.282Z,37.97
2024-03-16T02:12:29.851Z,37.68
2024-03-16T02:13:01.465Z,37.61
2024-03-16T02:13:33.105Z,37.86
2024-03-16T02:14:04.633Z,37.72
2024-03-16T02:14:36.134Z,37.83
2024-03-16T02:15:07.731Z,37.74
2024-03-16T02:15:39.391Z,37.86
2024-03-16T02:16:11.025Z,37.66
2024-03-16T02:16:42.589Z,38.02
2024-03-16T02:17:14.177Z,37.64
2024-03-16T02:17:45.725Z,37.98
2024-03-16T02:18:17.359Z,38.00
2024-03-16T02:18:49.071Z,37.65
2024-03-16T02:19:20.681Z,37.89
2024-03-16T02:19:52.310Z,38.20
2024-03-16T02:20:23.939Z,38.05
2024-03-16T02:20:55.515Z,38.05
2024-03-16T02:21:27.202Z,37.75
2024-03-16T02:21:58.916Z,37.91
2024-03-16T02:22:30.545Z,37.98
2024-03-16T02:23:02.151Z,38.16
2024-03-16T02:23:33.651Z,38.15
2024-03-16T02:24:05.389Z,38.17
2024-03-16T02:24:37.030Z,37.77
2024-03-16T02:25:09.141Z,38.02
2024-03-16T02:25:41.126Z,38.05
2024-03-16T02:26:12.809Z,38.15
2024-03-16T02:26:44.437Z,38.10
2024-03-16T02:27:16.320Z,37.48
2024-03-16T02:27:47.910Z,37.76
2024-03-16T02:28:19.775Z,37.74
2024-03-16T02:28:51.417Z,37.91
2024-03-16T02:29:23.011Z,37.92
2024-03-16T02:29:54.558Z,38.12
2024-03-16T02:30:26.103Z,37.58
2024-03-16T02:30:57.921Z,37.89
2024-03-16T02:31:29.478Z,38.08
2024-03-16T02:32:01.153Z,37.76
2024-03-16T02:32:32.719Z,37.88
2024-03-16T02:33:04.549Z,37.89
2024-03-16T02:33:36.166Z,37.61
2024-03-16T02:34:07.836Z,38.12
2024-03-16T02:34:39.431Z,38.03
2024-03-16T02:35:11.028Z,38.21
2024-03-16T02:35:42.768Z,38.02
2024-03-16T02:36:14.546Z,37.76
2024-03-16T02:36:46.138Z,37.91
2024-03-16T02:37:17.773Z,38.10
2024-03-16T02:37:49.385Z,37.96
2024-03-16T02:38:20.904Z,37.91
2024-03-16T02:38:52.523Z,37.87
2024-03-16T02:39:24.128Z,37.69
2024-03-16T02:39:55.701Z,37.85
2024-03-16T02:40:27.625Z,37.65
2024-03-16T02:40:59.242Z,37.68
2024-03-16T02:41:30.760Z,37.83
2024-03-16T02:42:02.562Z,37.72
2024-03-16T02:42:34.333Z,37.99
2024-03-16T02:43:06.141Z,37.81
2024-03-16T02:43:37.707Z,37.90
2024-03-16T02:44:09.289Z,37.65
2024-03-16T02:44:41.015Z,37.93
2024-03-16T02:45:12.642Z,37.66
2024-03-16T02:45:44.229Z,37.78
2024-03-16T02:46:15.913Z,37.74
2024-03-16T02:46:47.551Z,37.79
2024-03-16T02:47:19.121Z,37.92
2024-03-16T02:47:50.774Z,38.12
2024-03-16T02:48:22.356Z,37.71
2024-03-16T02:48:54.076Z,37.83
2024-03-16T02:49:25.688Z,37.78
2024-03-16T02:49:57.260Z,38.03
2024-03-16T02:50:28.890Z,37.63
2024-03-16T02:51:00.475Z,37.76
2024-03-16T02:51:32.058Z,37.87
2024-03-16T02:52:03.928Z,37.99
2024-03-16T02:52:35.543Z,37.72
2024-03-16T02:53:07.130Z,38.05
2024-03-16T02:53:38.720Z,37.74
2024-03-16T02:54:10.369Z,37.57
2024-03-16T02:54:42.135Z,37.79
2024-03-16T02:55:13.869Z,37.72
2024-03-16T02:55:45.507Z,38.12
2024-03-16T02:56:17.104Z,38.01
2024-03-16T02:56:48.712Z,37.62
2024-03-16T02:57:20.309Z,37.78
2024-03-16T02:57:51.866Z,38.06
2024-03-16T02:58:23.409Z,37.96
2024-03-16T02:58:55.013Z,37.95
2024-03-16T02:59:26.628Z,37.69
2024-03-16T02:59:58.204Z,38.11
2024-03-16T03:00:29.740Z,37.91
2024-03-16T03:01:01.500Z,37.49
2024-03-16T03:01:33.193Z,37.59
2024-03-16T03:02:04.833Z,37.68
2024-03-16T03:02:36.490Z,37.58
2024-03-16T03:03:08.145Z,38.07
2024-03-16T03:03:39.949Z,37.90
2024-03-16T03:04:11.602Z,37.94
2024-03-16T03:04:43.173Z,37.71
2024-03-16T03:05:14.689Z,38.08
2024-03-16T03:05:46.223Z,37.72
2024-03-16T03:06:17.720Z,37.63
2024-03-16T03:06:49.316Z,37.81
2024-03-16T03:07:20.884Z,38.08
2024-03-16T03:07:52.403Z,38.02
2024-03-16T03:08:23.939Z,38.05
2024-03-16T03:08:55.602Z,37.84
2024-03-16T03:09:27.486Z,37.92
2024-03-16T03:09:59.207Z,37.53
2024-03-16T03:10:30.857Z,37.64
2024-03-16T03:11:02.461Z,38.00
2024-03-16T03:11:34.134Z,37.97
2024-03-16T03:12:05.788Z,37.53
2024-03-16T03:12:37.435Z,37.95
2024-03-16T03:13:09.092Z,37.47
2024-03-16T03:13:40.719Z,37.65
2024-03-16T03:14:12.325Z,37.92
2024-03-16T03:14:43.887Z,38.01
2024-03-16T03:15:15.424Z,37.69
2024-03-16T03:15:49.368Z,38.18
2024-03-16T03:16:20.905Z,37.85
2024-03-16T03:16:52.583Z,37.81
2024-03-16T03:17:24.137Z,37.78
2024-03-16T03:17:56.497Z,37.59
2024-03-16T03:18:28.179Z,37.86
2024-03-16T03:18:59.851Z,38.12
2024-03-16T03:19:31.436Z,37.90
2024-03-16T03:20:03.211Z,38.09
2024-03-16T03:20:34.958Z,38.05
2024-03-16T03:21:06.517Z,37.91
2024-03-16T03:21:38.189Z,37.77
2024-03-16T03:22:09.890Z,37.67
2024-03-16T03:22:41.733Z,37.59
2024-03-16T03:23:13.558Z,37.83
2024-03-16T03:23:45.736Z,37.48
2024-03-16T03:24:17.351Z,37.63
2024-03-16T03:24:48.941Z,38.28
2024-03-16T03:25:20.506Z,37.82
2024-03-16T03:25:52.106Z,37.85
2024-03-16T03:26:23.687Z,37.54
2024-03-16T03:26:55.336Z,37.68
2024-03-16T03:27:27.627Z,37.79
2024-03-16T03:27:59.331Z,37.78
2024-03-16T03:28:30.914Z,37.80
2024-03-16T03:29:02.590Z,37.96
2024-03-16T03:29:34.095Z,37.96
2024-03-16T03:30:05.865Z,38.02
2024-03-16T03:30:37.436Z,37.58
2024-03-16T03:31:10.077Z,37.95
2024-03-16T03:31:41.675Z,37.76
2024-03-16T03:32:13.217Z,37.74
2024-03-16T03:32:44.946Z,38.07
2024-03-16T03:33:16.702Z,37.68
2024-03-16T03:33:48.274Z,37.50
2024-03-16T03:34:19.850Z,37.99
2024-03-16T03:34:51.525Z,37.69
2024-03-16T03:35:23.094Z,37.81
2024-03-16T03:35:54.694Z,37.78
2024-03-16T03:36:26.392Z,37.90
2024-03-16T03:36:57.968Z,37.95
2024-03-16T03:37:29.636Z,37.65
2024-03-16T03:38:01.586Z,38.23
2024-03-16T03:38:33.175Z,37.83
2024-03-16T03:39:04.927Z,37.91
2024-03-16T03:39:36.521Z,37.70
2024-03-16T03:40:08.466Z,37.51
2024-03-16T03:40:41.227Z,37.67
2024-03-16T03:41:12.775Z,37.96
2024-03-16T03:41:44.393Z,37.77
2024-03-16T03:42:16.014Z,37.98
2024-03-16T03:42:47.600Z,38.04
2024-03-16T03:43:19.150Z,38.04
2024-03-16T03:43:50.840Z,37.56
2024-03-16T03:44:22.597Z,37.57
2024-03-16T03:44:54.302Z,37.77
2024-03-16T03:45:26.397Z,37.66
2024-03-16T03:45:58.318Z,37.55
2024-03-16T03:46:29.861Z,37.79
2024-03-16T03:47:01.389Z,37.65
2024-03-16T03:47:33.145Z,37.67
2024-03-16T03:48:05.725Z,37.73
2024-03-16T03:48:37.431Z,38.04
2024-03-16T03:49:09.175Z,37.90
2024-03-16T03:49:40.826Z,37.61
2024-03-16T03:50:12.415Z,37.75
2024-03-16T03:50:43.986Z,37.94
2024-03-16T03:51:15.456Z,37.81
2024-03-16T03:51:47.050Z,37.67
2024-03-16T03:52:18.664Z,37.80
2024-03-16T03:52:50.186Z,37.69
2024-03-16T03:53:22.689Z,38.03
2024-03-16T03:53:54.249Z,37.61
2024-03-16T03:54:26.087Z,37.81
2024-03-16T03:54:57.778Z,37.87
2024-03-16T03:55:29.444Z,37.66
2024-03-16T03:56:01.050Z,37.70
2024-03-16T03:56:32.630Z,37.82
2024-03-16T03:57:04.253Z,37.86
2024-03-16T03:57:35.829Z,38.00
2024-03-16T03:58:07.427Z,37.70
2024-03-16T03:58:39.080Z,37.64
2024-03-16T03:59:10.683Z,37.80
2024-03-16T03:59:42.343Z,37.58
2024-03-16T04:00:13.913Z,37.50
2024-03-16T04:00:45.636Z,37.64
2024-03-16T04:01:18.058Z,37.61
2024-03-16T04:01:49.726Z,37.82
2024-03-16T04:02:21.311Z,37.88
2024-03-16T04:02:53.129Z,37.71
2024-03-16T04:03:24.715Z,37.77
2024-03-16T04:03:56.366Z,38.10
2024-03-16T04:04:28.069Z,37.83
2024-03-16T04:04:59.735Z,37.94
2024-03-16T04:05:31.232Z,37.80
2024-03-16T04:06:02.887Z,37.76
2024-03-16T04:06:34.434Z,37.57
2024-03-16T04:07:06.063Z,37.62
2024-03-16T04:07:37.704Z,38.07
2024-03-16T04:08:09.263Z,37.82
2024-03-16T04:08:40.805Z,37.51
2024-03-16T04:09:12.670Z,37.37
2024-03-16T04:09:44.344Z,37.89
2024-03-16T04:10:15.861Z,37.85
2024-03-16T04:10:47.477Z,37.87
2024-03-16T04:11:19.350Z,37.58
2024-03-16T04:11:50.910Z,37.81
2024-03-16T04:12:22.544Z,37.61
2024-03-16T04:12:54.205Z,37.66
2024-03-16T04:13:25.838Z,38.08
2024-03-16T04:13:57.399Z,37.96
2024-03-16T04:14:29.031Z,37.79
2024-03-16T04:15:00.601Z,37.81
2024-03-16T04:15:32.152Z,37.68
2024-03-16T04:16:03.838Z,37.74
2024-03-16T04:16:35.414Z,37.79
2024-03-16T04:17:06.981Z,38.01
2024-03-16T04:17:38.568Z,37.90
2024-03-16T04:18:10.279Z,37.67
2024-03-16T04:18:42.291Z,37.97
2024-03-16T04:19:13.986Z,38.03
2024-03-16T04:19:45.600Z,37.95
2024-03-16T04:20:18.088Z,38.05
2024-03-16T04:20:49.672Z,37.73
2024-03-16T04:21:21.326Z,37.88
2024-03-16T04:21:52.992Z,37.97
2024-03-16T04:22:24.614Z,37.99
2024-03-16T04:22:56.246Z,37.74
2024-03-16T04:23:27.876Z,37.83
2024-03-16T04:23:59.457Z,37.63
2024-03-16T04:24:31.064Z,37.55
2024-03-16T04:25:02.653Z,37.99
2024-03-16T04:25:34.263Z,37.87
2024-03-16T04:26:05.848Z,37.69
2024-03-16T04:26:37.468Z,38.08
2024-03-16T04:27:08.957Z,37.92
2024-03-16T04:27:41.316Z,38.01
2024-03-16T04:28:12.934Z,37.91
2024-03-16T04:28:44.508Z,37.88
2024-03-16T04:29:16.201Z,38.16
2024-03-16T04:29:47.714Z,37.69
2024-03-16T04:30:19.348Z,37.81
2024-03-16T04:30:50.970Z,37.57
2024-03-16T04:31:22.596Z,37.74
2024-03-16T04:31:54.217Z,37.96
2024-03-16T04:32:25.887Z,37.81
2024-03-16T04:32:57.549Z,37.93
2024-03-16T04:33:29.460Z,37.93
2024-03-16T04:34:01.145Z,37.78
2024-03-16T04:34:32.920Z,37.89
2024-03-16T04:35:04.705Z,37.79
2024-03-16T04:35:36.263Z,37.91
2024-03-16T04:36:08.043Z,37.68
2024-03-16T04:36:39.601Z,37.80
2024-03-16T04:37:11.281Z,37.78
2024-03-16T04:37:42.822Z,37.64
2024-03-16T04:38:14.594Z,38.12
2024-03-16T04:38:46.184Z,37.91
2024-03-16T04:39:17.814Z,37.63
2024-03-16T04:39:49.405Z,37.87
2024-03-16T04:40:21.082Z,37.82
2024-03-16T04:40:52.740Z,37.96
2024-03-16T04:41:24.294Z,38.02
2024-03-16T04:41:55.936Z,37.96
2024-03-16T04:42:27.586Z,37.67
2024-03-16T04:42:59.189Z,37.76
2024-03-16T04:43:30.825Z,38.21
2024-03-16T04:44:02.389Z,38.01
2024-03-16T04:44:33.992Z,38.07
2024-03-16T04:45:05.653Z,37.57
2024-03-16T04:45:37.199Z,37.98
2024-03-16T04:46:08.852Z,38.01
2024-03-16T04:46:40.436Z,37.99
2024-03-16T04:47:11.957Z,37.98
2024-03-16T04:47:43.581Z,37.70
2024-03-16T04:48:15.146Z,38.15
2024-03-16T04:48:46.794Z,37.89
2024-03-16T04:49:18.391Z,37.72
2024-03-16T04:49:49.937Z,38.08
2024-03-16T04:50:21.524Z,37.80
2024-03-16T04:50:55.422Z,37.86
2024-03-16T04:51:27.098Z,37.80
2024-03-16T04:51:58.792Z,37.74
2024-03-16T04:52:30.364Z,37.96
2024-03-16T04:53:01.938Z,37.87
2024-03-16T04:53:33.644Z,37.87
2024-03-16T04:54:05.207Z,37.73
2024-03-16T04:54:36.822Z,38.14
2024-03-16T04:55:08.626Z,37.81
2024-03-16T04:55:40.371Z,37.80
2024-03-16T04:56:11.916Z,37.84
2024-03-16T04:56:43.505Z,38.07
2024-03-16T04:57:15.223Z,38.00
2024-03-16T04:57:46.822Z,37.91
2024-03-16T04:58:18.343Z,37.86
2024-03-16T04:58:50.000Z,37.83
2024-03-16T04:59:21.750Z,37.92
2024-03-16T04:59:53.305Z,38.06
2024-03-16T05:00:24.821Z,38.08
2024-03-16T05:00:56.471Z,37.96
2024-03-16T05:01:28.462Z,37.92
2024-03-16T05:02:00.205Z,38.01
2024-03-16T05:02:31.831Z,38.25
2024-03-16T05:03:03.656Z,37.73
2024-03-16T05:03:35.238Z,37.91
2024-03-16T05:04:07.008Z,37.99
2024-03-16T05:04:38.585Z,38.03
2024-03-16T05:05:10.150Z,37.81
2024-03-16T05:05:41.763Z,37.75
2024-03-16T05:06:13.534Z,38.41
2024-03-16T05:06:45.144Z,37.92
2024-03-16T05:07:16.843Z,38.10
2024-03-16T05:07:48.462Z,38.05
2024-03-16T05:08:19.991Z,37.87
2024-03-16T05:08:51.525Z,38.23
2024-03-16T05:09:23.020Z,37.96
2024-03-16T05:09:54.698Z,37.99
2024-03-16T05:10:26.474Z,38.21
2024-03-16T05:10:58.086Z,37.87
2024-03-16T05:11:29.697Z,37.99
2024-03-16T05:12:01.382Z,38.15
2024-03-16T05:12:32.963Z,38.05
2024-03-16T05:13:04.647Z,38.14
2024-03-16T05:13:36.249Z,37.87
2024-03-16T05:14:07.869Z,38.41
2024-03-16T05:14:39.468Z,38.23
2024-03-16T05:15:11.017Z,38.16
2024-03-16T05:15:42.701Z,37.88
2024-03-16T05:16:14.321Z,38.30
2024-03-16T05:16:46.003Z,37.92
2024-03-16T05:17:17.601Z,38.11
2024-03-16T05:17:49.138Z,37.98
2024-03-16T05:18:20.663Z,38.07
2024-03-16T05:18:52.351Z,37.92
2024-03-16T05:19:23.922Z,38.00
2024-03-16T05:19:55.494Z,37.72
2024-03-16T05:20:27.105Z,38.07
2024-03-16T05:20:58.701Z,38.42
2024-03-16T05:21:30.424Z,38.27
2024-03-16T05:22:05.109Z,38.15
2024-03-16T05:22:37.912Z,38.02
2024-03-16T05:23:09.458Z,38.28
2024-03-16T05:23:41.073Z,38.25
2024-03-16T05:24:12.792Z,38.25
2024-03-16T05:24:44.354Z,38.12
2024-03-16T05:25:16.060Z,38.32
2024-03-16T05:25:47.607Z,38.15
2024-03-16T05:26:19.170Z,38.35
2024-03-16T05:26:50.857Z,38.16
2024-03-16T05:27:22.389Z,38.34
2024-03-16T05:27:53.941Z,38.17
2024-03-16T05:28:27.714Z,37.83
2024-03-16T05:28:59.655Z,38.07
2024-03-16T05:29:31.227Z,38.24
2024-03-16T05:30:02.806Z,38.35
2024-03-16T05:30:34.525Z,38.24
2024-03-16T05:31:06.330Z,38.16
2024-03-16T05:31:37.893Z,38.14
2024-03-16T05:32:09.458Z,38.13
2024-03-16T05:32:41.052Z,38.12
2024-03-16T05:33:12.612Z,38.57
2024-03-16T05:33:44.243Z,38.17
2024-03-16T05:34:15.833Z,38.20
2024-03-16T05:34:47.480Z,38.32
2024-03-16T05:35:19.050Z,38.09
2024-03-16T05:35:50.574Z,38.09
2024-03-16T05:36:22.166Z,38.15
2024-03-16T05:36:53.871Z,38.14
2024-03-16T05:37:27.202Z,38.27
2024-03-16T05:37:59.557Z,38.07
2024-03-16T05:38:31.104Z,38.20
2024-03-16T05:39:02.639Z,38.17
2024-03-16T05:39:34.387Z,38.18
2024-03-16T05:40:06.375Z,38.07
2024-03-16T05:40:41.134Z,38.02
2024-03-16T05:41:12.932Z,38.09
2024-03-16T05:41:44.474Z,38.03
2024-03-16T05:42:16.038Z,38.37
2024-03-16T05:42:47.652Z,38.36
2024-03-16T05:43:19.316Z,38.26
2024-03-16T05:43:50.951Z,38.13
2024-03-16T05:44:22.557Z,38.41
2024-03-16T05:44:54.195Z,38.30
2024-03-16T05:45:25.815Z,38.15
2024-03-16T05:45:57.459Z,38.33
2024-03-16T05:46:29.029Z,38.38
2024-03-16T05:47:00.543Z,38.30
2024-03-16T05:47:32.260Z,38.28
2024-03-16T05:48:03.973Z,38.42
2024-03-16T05:48:35.567Z,38.41
2024-03-16T05:49:07.350Z,38.22
2024-03-16T05:49:38.925Z,38.21
2024-03-16T05:50:10.524Z,38.24
2024-03-16T05:50:42.077Z,38.11
2024-03-16T05:51:13.658Z,38.19
2024-03-16T05:51:45.192Z,38.03
2024-03-16T05:52:16.845Z,38.15
2024-03-16T05:52:48.390Z,38.42
2024-03-16T05:53:20.086Z,38.05
2024-03-16T05:53:51.713Z,38.29
2024-03-16T05:54:23.234Z,38.60
2024-03-16T05:54:54.952Z,38.29
2024-03-16T05:55:26.669Z,38.31
2024-03-16T05:55:58.200Z,38.08
2024-03-16T05:56:29.827Z,38.52
2024-03-16T05:57:01.444Z,38.33
2024-03-16T05:57:33.042Z,38.21
2024-03-16T05:58:04.671Z,38.31
2024-03-16T05:58:36.224Z,38.22
2024-03-16T05:59:07.898Z,38.52
2024-03-16T05:59:39.469Z,38.18
2024-03-16T06:00:11.263Z,38.44
2024-03-16T06:00:43.034Z,38.33
2024-03-16T06:01:14.801Z,38.26
2024-03-16T06:01:46.592Z,38.30
2024-03-16T06:02:18.194Z,38.61
2024-03-16T06:02:49.717Z,38.58
2024-03-16T06:03:21.368Z,38.32
2024-03-16T06:03:52.953Z,38.23
2024-03-16T06:04:24.497Z,38.26
2024-03-16T06:04:56.157Z,38.31
2024-03-16T06:05:27.697Z,38.24
2024-03-16T06:05:59.302Z,38.23
2024-03-16T06:06:31.147Z,38.59
2024-03-16T06:07:02.816Z,38.49
2024-03-16T06:07:34.645Z,38.31
2024-03-16T06:08:06.322Z,38.63
2024-03-16T06:08:37.944Z,38.26
2024-03-16T06:09:10.014Z,38.11
2024-03-16T06:09:41.732Z,38.40
2024-03-16T06:10:13.418Z,38.19
2024-03-16T06:10:45.059Z,38.29
2024-03-16T06:11:16.902Z,38.59
2024-03-16T06:11:48.555Z,38.26
2024-03-16T06:12:20.114Z,38.30
2024-03-16T06:12:51.686Z,38.28
2024-03-16T06:13:23.316Z,38.35
2024-03-16T06:13:54.921Z,38.26
2024-03-16T06:14:26.490Z,38.17
2024-03-16T06:14:58.295Z,38.36
2024-03-16T06:15:29.838Z,38.27
2024-03-16T06:16:01.470Z,38.30
2024-03-16T06:16:33.088Z,38.58
2024-03-16T06:17:04.756Z,38.29
2024-03-16T06:17:36.331Z,38.10
2024-03-16T06:18:08.022Z,38.36
2024-03-16T06:18:39.783Z,38.52
2024-03-16T06:19:11.449Z,38.26
2024-03-16T06:19:43.081Z,38.51
2024-03-16T06:20:14.715Z,38.31
2024-03-16T06:20:46.314Z,38.47
2024-03-16T06:21:17.842Z,38.41
2024-03-16T06:21:49.384Z,38.31
2024-03-16T06:22:20.927Z,38.44
2024-03-16T06:22:52.532Z,38.22
2024-03-16T06:23:24.128Z,38.34
2024-03-16T06:23:55.702Z,38.38
2024-03-16T06:24:27.301Z,38.66
2024-03-16T06:24:58.956Z,38.56
2024-03-16T06:25:30.855Z,38.59
2024-03-16T06:26:02.562Z,38.45
2024-03-16T06:26:34.085Z,38.30
2024-03-16T06:27:05.716Z,38.47
2024-03-16T06:27:37.258Z,38.56
2024-03-16T06:28:08.983Z,38.70
2024-03-16T06:28:40.593Z,38.70
2024-03-16T06:29:12.115Z,38.42
2024-03-16T06:29:43.719Z,38.39
2024-03-16T06:30:15.320Z,38.55
2024-03-16T06:30:46.929Z,38.49
2024-03-16T06:31:18.588Z,38.38
2024-03-16T06:31:50.169Z,38.64
2024-03-16T06:32:21.944Z,38.87
2024-03-16T06:32:53.513Z,38.50
2024-03-16T06:33:25.098Z,38.61
2024-03-16T06:33:56.898Z,38.37
2024-03-16T06:34:28.482Z,38.51
2024-03-16T06:35:00.150Z,38.86
2024-03-16T06:35:31.880Z,38.41
2024-03-16T06:36:03.896Z,38.63
2024-03-16T06:36:35.644Z,38.46
2024-03-16T06:37:07.329Z,38.38
2024-03-16T06:37:38.888Z,38.77
2024-03-16T06:38:10.487Z,38.71
2024-03-16T06:38:42.097Z,38.38
2024-03-16T06:39:13.658Z,38.48
2024-03-16T06:39:45.431Z,38.57
2024-03-16T06:40:17.042Z,38.55
2024-03-16T06:40:48.773Z,38.64
2024-03-16T06:41:20.330Z,38.73
2024-03-16T06:41:51.859Z,38.40
2024-03-16T06:42:23.402Z,38.46
2024-03-16T06:42:55.036Z,38.66
2024-03-16T06:43:26.584Z,38.57
2024-03-16T06:43:58.138Z,38.43
2024-03-16T06:44:29.644Z,38.52
2024-03-16T06:45:01.193Z,38.64
2024-03-16T06:45:32.987Z,38.37
2024-03-16T06:46:04.640Z,38.79
2024-03-16T06:46:36.232Z,38.40
2024-03-16T06:47:07.790Z,38.79
2024-03-16T06:47:39.397Z,38.63
2024-03-16T06:48:11.003Z,38.43